Time;durP1;ratioP1;P1;durP2;ratioP2;P2;SDS_P1;SDS_P2;PMS_P1;PMS_P2;Temp;Humidity;BMP_temperature;BMP_pressure;BME280_temperature;BME280_humidity;BME280_pressure;Samples;Min_cycle;Max_cycle;Signal;HPM_P1;HPM_P2
2021/12/27 00:00:39;;;;;;;;;3.00;2.50;;;;;20.89;38.31;99866.97;5053925;28;45504;-70
2021/12/27 00:03:05;;;;;;;;;2.50;2.50;;;;;20.87;38.68;99855.75;5055333;28;45483;-69
2021/12/27 00:05:31;;;;;;;;;3.25;2.50;;;;;20.90;38.47;99862.47;5054359;28;45466;-69
2021/12/27 00:07:57;;;;;;;;;5.50;3.25;;;;;20.89;38.37;99850.28;5053375;28;45360;-69
2021/12/27 00:10:25;;;;;;;;;4.50;4.50;;;;;20.90;38.47;99849.25;5053604;28;45435;-69
2021/12/27 00:12:51;;;;;;;;;3.75;2.00;;;;;20.89;38.64;99837.88;5053842;28;45503;-69
2021/12/27 00:15:17;;;;;;;;;3.50;2.75;;;;;20.90;38.31;99836.84;5054070;28;45368;-69
2021/12/27 00:17:44;;;;;;;;;4.00;3.00;;;;;20.89;38.55;99837.88;5055087;28;47507;-69
2021/12/27 00:20:12;;;;;;;;;3.50;3.50;;;;;20.88;38.38;99835.41;5051689;28;45384;-69
2021/12/27 00:22:38;;;;;;;;;3.25;3.25;;;;;20.89;38.45;99834.41;5053678;28;45543;-69
2021/12/27 00:25:05;;;;;;;;;4.75;3.25;;;;;20.92;38.32;99834.81;5053457;28;45457;-69
2021/12/27 00:27:30;;;;;;;;;4.25;2.75;;;;;20.91;38.50;99832.38;5053556;28;46530;-69
2021/12/27 00:29:56;;;;;;;;;3.75;2.50;;;;;20.91;38.43;99824.47;5055458;28;45289;-69
2021/12/27 00:32:21;;;;;;;;;2.50;2.50;;;;;20.87;38.56;99813.44;5030466;28;46065;-69
2021/12/27 00:34:47;;;;;;;;;2.00;2.00;;;;;20.92;38.64;99815.53;5046312;28;45506;-69
2021/12/27 00:37:12;;;;;;;;;3.75;3.25;;;;;20.88;38.27;99811.63;5053366;28;45619;-69
2021/12/27 00:39:38;;;;;;;;;3.50;3.50;;;;;20.91;38.56;99805.94;5053551;28;45480;-69
2021/12/27 00:42:04;;;;;;;;;3.75;2.50;;;;;20.93;38.55;99803.91;5035217;28;45449;-69
2021/12/27 00:44:30;;;;;;;;;4.00;3.25;;;;;20.94;38.29;99794.97;5059254;28;45347;-69
2021/12/27 00:46:55;;;;;;;;;2.50;2.50;;;;;20.95;38.50;99796.59;5059266;28;45976;-69
2021/12/27 00:49:21;;;;;;;;;3.75;3.75;;;;;20.93;38.52;99788.88;5059841;28;45399;-69
2021/12/27 00:51:47;;;;;;;;;3.25;3.25;;;;;20.92;38.24;99783.78;5060107;28;45409;-69
2021/12/27 00:54:13;;;;;;;;;5.75;1.75;;;;;20.94;38.18;99785.22;5061221;28;45308;-69
2021/12/27 00:56:38;;;;;;;;;2.25;2.25;;;;;20.93;38.28;99780.94;5061114;28;45400;-69
2021/12/27 00:59:04;;;;;;;;;5.50;4.25;;;;;20.92;38.62;99774.00;5058093;28;45329;-69
2021/12/27 01:01:29;;;;;;;;;3.75;2.00;;;;;20.92;38.34;99774.00;5059525;28;45554;-69
2021/12/27 01:03:54;;;;;;;;;3.25;2.75;;;;;20.93;38.57;99769.53;5059806;28;45401;-69
2021/12/27 01:06:20;;;;;;;;;5.25;5.00;;;;;20.91;38.33;99771.56;5059715;28;46236;-69
2021/12/27 01:08:45;;;;;;;;;2.75;2.75;;;;;20.91;38.62;99767.13;5061846;28;45453;-69
2021/12/27 01:12:11;;;;;;;;;3.75;3.00;;;;;20.92;38.57;99754.72;5058224;28;45220;-69
2021/12/27 01:14:09;;;;;;;;;3.00;3.00;;;;;20.90;38.24;99756.72;5055362;28;45358;-69
2021/12/27 01:16:35;;;;;;;;;3.25;3.25;;;;;20.92;38.47;99752.84;5059046;28;47136;-69
2021/12/27 01:19:00;;;;;;;;;7.00;5.00;;;;;20.92;38.45;99752.84;5059422;28;45563;-69
2021/12/27 01:21:26;;;;;;;;;4.00;4.00;;;;;20.90;38.58;99749.59;5059804;28;46029;-69
2021/12/27 01:23:53;;;;;;;;;4.50;3.75;;;;;20.93;38.47;99748.38;5061632;28;45476;-69
2021/12/27 01:26:19;;;;;;;;;4.50;4.25;;;;;20.90;38.38;99741.66;5059207;28;46391;-69
2021/12/27 01:28:45;;;;;;;;;5.00;4.00;;;;;20.93;38.34;99746.56;5059366;28;45470;-69
2021/12/27 01:31:11;;;;;;;;;4.25;4.00;;;;;20.90;38.41;99732.91;5058433;28;45488;-69
2021/12/27 01:33:37;;;;;;;;;3.00;3.00;;;;;20.85;38.52;99730.88;5041407;28;45357;-69
2021/12/27 01:36:04;;;;;;;;;3.50;3.00;;;;;20.92;38.57;99744.94;5061565;28;46301;-69
2021/12/27 01:38:30;;;;;;;;;3.00;3.00;;;;;20.90;38.51;99738.22;5059724;28;45487;-67
2021/12/27 01:40:57;;;;;;;;;4.75;3.50;;;;;20.92;38.58;99730.91;5059492;28;45315;-67
2021/12/27 01:43:25;;;;;;;;;4.50;4.50;;;;;20.91;38.46;99727.44;5058839;28;45442;-68
2021/12/27 01:45:54;;;;;;;;;4.00;4.00;;;;;20.91;38.23;99724.81;5058975;28;45550;-68
2021/12/27 01:48:23;;;;;;;;;5.50;3.75;;;;;20.90;38.67;99717.88;5060070;28;45382;-68
2021/12/27 01:50:50;;;;;;;;;5.75;4.00;;;;;20.90;38.24;99714.41;5059836;28;45370;-68
2021/12/27 01:53:17;;;;;;;;;6.00;4.00;;;;;20.91;38.25;99716.88;5047371;28;45472;-68
2021/12/27 01:55:43;;;;;;;;;3.75;3.00;;;;;20.84;38.54;99702.84;5055152;28;45493;-68
2021/12/27 01:58:09;;;;;;;;;3.75;2.00;;;;;20.92;38.43;99717.69;5055267;28;45307;-68
2021/12/27 02:00:38;;;;;;;;;4.00;4.00;;;;;20.91;38.67;99713.41;5055888;28;45354;-68
2021/12/27 02:03:04;;;;;;;;;5.25;4.50;;;;;20.91;38.46;99708.13;5057990;28;45220;-68
2021/12/27 02:05:30;;;;;;;;;3.75;3.50;;;;;20.89;38.25;99702.22;5054289;28;46167;-68
2021/12/27 02:07:55;;;;;;;;;2.75;2.75;;;;;20.87;38.43;99701.63;5055504;28;45302;-68
2021/12/27 02:10:20;;;;;;;;;4.25;4.25;;;;;20.90;38.32;99702.00;5055623;28;45711;-68
2021/12/27 02:12:46;;;;;;;;;5.25;5.00;;;;;20.90;38.81;99709.94;5055316;28;45465;-68
2021/12/27 02:15:12;;;;;;;;;5.50;4.00;;;;;20.90;38.64;99704.66;5056326;28;46419;-68
2021/12/27 02:17:40;;;;;;;;;5.75;4.50;;;;;20.88;38.38;99693.47;5055206;28;45501;-68
2021/12/27 02:20:15;;;;;;;;;3.00;3.00;;;;;20.89;38.62;99692.47;5055493;28;45382;-68
2021/12/27 02:22:40;;;;;;;;;3.25;3.00;;;;;20.92;38.49;99707.13;5055261;28;45465;-68
2021/12/27 02:25:07;;;;;;;;;2.75;2.75;;;;;20.90;38.31;99699.38;5055287;28;45842;-68
2021/12/27 02:27:33;;;;;;;;;5.00;5.00;;;;;20.91;38.46;99716.88;5037939;28;45448;-68
2021/12/27 02:29:59;;;;;;;;;4.25;3.50;;;;;20.92;38.38;99721.13;5057297;28;45354;-68
2021/12/27 02:32:24;;;;;;;;;6.00;3.50;;;;;20.87;38.77;99706.91;5042383;28;45303;-68
2021/12/27 02:34:50;;;;;;;;;3.00;3.00;;;;;20.91;38.43;99716.88;5055157;28;45319;-68
2021/12/27 02:37:15;;;;;;;;;4.00;3.00;;;;;20.92;38.31;99712.41;5055344;28;45599;-68
2021/12/27 02:39:40;;;;;;;;;2.00;2.00;;;;;20.91;38.55;99702.84;5055500;28;45566;-68
2021/12/27 02:42:06;;;;;;;;;4.25;4.25;;;;;20.93;38.37;99700.78;5056503;28;45570;-68
2021/12/27 02:44:34;;;;;;;;;4.25;4.25;;;;;20.92;38.66;99707.13;5055573;28;45496;-68
2021/12/27 02:47:00;;;;;;;;;4.00;4.00;;;;;20.95;38.24;99710.16;5054800;28;45440;-68
2021/12/27 02:49:25;;;;;;;;;4.00;3.00;;;;;20.92;38.77;99704.47;5055127;28;45446;-68
2021/12/27 02:51:52;;;;;;;;;4.00;2.75;;;;;20.93;38.45;99695.50;5055067;28;45318;-68
2021/12/27 02:54:18;;;;;;;;;2.75;2.75;;;;;20.94;38.38;99697.97;5055797;28;46529;-68
2021/12/27 02:56:43;;;;;;;;;4.00;4.00;;;;;20.91;38.63;99687.78;5054248;28;45413;-68
2021/12/27 02:59:08;;;;;;;;;4.00;4.00;;;;;20.91;38.42;99684.31;5054867;28;45442;-68
2021/12/27 03:01:34;;;;;;;;;4.25;4.00;;;;;20.90;38.50;99675.56;5054955;28;45457;-68
2021/12/27 03:03:59;;;;;;;;;2.50;2.50;;;;;20.87;38.42;99667.25;5054779;28;45468;-68
2021/12/27 03:06:25;;;;;;;;;3.00;3.00;;;;;20.94;38.56;99676.00;5053509;28;45371;-68
2021/12/27 03:08:51;;;;;;;;;6.50;4.75;;;;;20.93;38.37;99674.34;5055699;28;45264;-68
2021/12/27 03:11:17;;;;;;;;;2.00;2.00;;;;;20.90;38.59;99667.63;5054241;28;45859;-68
2021/12/27 03:13:53;;;;;;;;;4.50;4.25;;;;;20.90;38.44;99665.00;5054412;28;46211;-68
2021/12/27 03:16:21;;;;;;;;;4.00;4.00;;;;;20.93;38.42;99663.78;5054538;28;45578;-68
2021/12/27 03:18:49;;;;;;;;;3.75;3.75;;;;;20.91;38.56;99661.34;5054880;28;45533;-68
2021/12/27 03:21:15;;;;;;;;;5.25;4.00;;;;;20.92;38.50;99652.38;5055338;28;45424;-68
2021/12/27 03:23:42;;;;;;;;;4.75;3.00;;;;;20.93;38.29;99661.13;5055937;28;46087;-68
2021/12/27 03:26:09;;;;;;;;;4.00;4.00;;;;;20.91;38.30;99658.72;5053697;28;45499;-68
2021/12/27 03:28:37;;;;;;;;;2.75;2.75;;;;;20.92;38.61;99665.59;5054435;28;45502;-68
2021/12/27 03:31:03;;;;;;;;;4.00;2.50;;;;;20.93;38.65;99661.13;5054433;28;45358;-68
2021/12/27 03:33:29;;;;;;;;;3.25;3.25;;;;;20.91;38.85;99652.59;5053581;28;46312;-68
2021/12/27 03:36:15;;;;;;;;;5.00;4.00;;;;;20.92;38.65;99651.59;5055553;28;45469;-68
2021/12/27 03:38:44;;;;;;;;;4.75;2.25;;;;;20.92;38.29;99646.31;5055693;28;45300;-68
2021/12/27 03:41:16;;;;;;;;;2.50;2.50;;;;;20.91;38.58;99642.84;5053931;28;45413;-68
2021/12/27 03:43:42;;;;;;;;;4.00;3.75;;;;;20.91;38.69;99645.47;5053705;28;46185;-68
2021/12/27 03:46:09;;;;;;;;;2.50;2.50;;;;;20.92;38.38;99648.94;5052402;28;45425;-68
2021/12/27 03:48:34;;;;;;;;;4.25;2.75;;;;;20.91;38.63;99653.41;5054322;28;45484;-68
2021/12/27 03:51:01;;;;;;;;;4.00;3.00;;;;;20.89;38.43;99647.53;5056299;28;45365;-68
2021/12/27 03:53:26;;;;;;;;;2.75;2.75;;;;;20.92;38.61;99648.94;5053713;28;45762;-68
2021/12/27 03:55:52;;;;;;;;;4.25;4.25;;;;;20.90;38.45;99640.38;5053440;28;45480;-68
2021/12/27 03:58:30;;;;;;;;;3.00;3.00;;;;;20.89;38.49;99639.59;5053085;28;45156;-68
2021/12/27 04:03:21;;;;;;;;;3.00;3.00;;;;;20.91;38.33;99642.84;5053576;28;45536;-68
2021/12/27 04:05:48;;;;;;;;;2.50;1.75;;;;;20.92;38.66;99643.66;5055832;28;45477;-68
2021/12/27 04:08:16;;;;;;;;;2.75;2.75;;;;;20.89;38.57;99641.41;5053912;28;45310;-68
2021/12/27 04:10:42;;;;;;;;;3.00;2.75;;;;;20.90;38.65;99638.56;5053353;28;45315;-68
2021/12/27 04:13:09;;;;;;;;;2.75;2.75;;;;;20.91;38.62;99631.44;5051870;28;45638;-69
2021/12/27 04:15:36;;;;;;;;;3.00;3.00;;;;;20.90;38.64;99624.53;5053871;28;45553;-67
2021/12/27 04:18:02;;;;;;;;;3.50;2.50;;;;;20.90;38.64;99625.34;5055449;28;45394;-68
2021/12/27 04:20:28;;;;;;;;;3.50;2.50;;;;;20.89;38.16;99625.56;5032237;28;45659;-68
2021/12/27 04:22:53;;;;;;;;;3.00;3.00;;;;;20.90;38.62;99638.56;5026651;28;46060;-68
2021/12/27 04:25:20;;;;;;;;;3.75;3.75;;;;;20.88;38.24;99626.56;5042101;28;45399;-68
2021/12/27 04:27:46;;;;;;;;;2.75;2.75;;;;;20.91;38.73;99624.34;5053813;28;45386;-68
2021/12/27 04:30:12;;;;;;;;;3.25;3.25;;;;;20.89;38.64;99623.72;5054723;28;45473;-68
2021/12/27 04:32:37;;;;;;;;;3.00;3.00;;;;;20.91;38.47;99623.50;5054234;28;45408;-68
2021/12/27 04:35:03;;;;;;;;;6.00;3.75;;;;;20.91;38.39;99618.22;5032402;28;45876;-69
2021/12/27 04:37:29;;;;;;;;;5.00;2.00;;;;;20.91;38.43;99611.13;5026905;28;45315;-68
2021/12/27 04:39:58;;;;;;;;;4.25;3.25;;;;;20.89;38.61;99607.03;5053547;28;45486;-68
2021/12/27 04:42:26;;;;;;;;;4.00;2.50;;;;;20.89;38.44;99613.16;5053425;28;45467;-68
2021/12/27 04:44:51;;;;;;;;;3.75;3.75;;;;;20.93;38.62;99614.38;5055263;28;45381;-68
2021/12/27 04:47:18;;;;;;;;;4.50;2.25;;;;;20.94;38.75;99616.00;5053058;28;45241;-68
2021/12/27 04:49:44;;;;;;;;;2.75;2.75;;;;;20.91;38.57;99605.00;5053415;28;45234;-68
2021/12/27 04:52:10;;;;;;;;;2.00;2.00;;;;;20.94;38.36;99609.91;5051043;28;47280;-68
2021/12/27 04:54:36;;;;;;;;;4.75;3.75;;;;;20.92;38.54;99602.16;5053088;28;45406;-68
2021/12/27 04:57:02;;;;;;;;;2.00;1.50;;;;;20.90;38.28;99592.78;5051177;28;45448;-68
2021/12/27 04:59:28;;;;;;;;;4.00;2.00;;;;;20.89;38.17;99592.00;5051884;28;46485;-68
2021/12/27 05:01:53;;;;;;;;;3.00;3.00;;;;;20.92;38.27;99590.78;5052698;28;46892;-68
2021/12/27 05:04:18;;;;;;;;;3.00;3.00;;;;;20.94;38.42;99594.03;5050796;28;45437;-69
2021/12/27 05:06:44;;;;;;;;;3.25;3.25;;;;;20.94;38.32;99592.22;5052913;28;45492;-68
2021/12/27 05:09:09;;;;;;;;;3.25;3.25;;;;;20.94;38.50;99592.22;5054495;28;45429;-68
2021/12/27 05:11:35;;;;;;;;;2.00;2.00;;;;;20.93;38.52;99582.63;5053597;28;46094;-68
2021/12/27 05:14:00;;;;;;;;;3.00;2.50;;;;;20.90;38.60;99572.47;5052853;28;45516;-68
2021/12/27 05:16:26;;;;;;;;;3.00;3.00;;;;;20.92;38.63;99565.13;5052930;28;45405;-68
2021/12/27 05:18:51;;;;;;;;;3.00;3.00;;;;;20.91;38.55;99546.84;5053069;28;45541;-68
2021/12/27 05:21:16;;;;;;;;;3.00;3.00;;;;;20.92;38.53;99551.13;5053060;28;46557;-68
2021/12/27 05:23:42;;;;;;;;;3.00;3.00;;;;;20.91;38.50;99531.78;5054405;28;45485;-68
2021/12/27 05:26:07;;;;;;;;;3.00;2.00;;;;;20.91;38.43;99523.88;5052854;28;45385;-68
2021/12/27 05:28:32;;;;;;;;;2.75;2.50;;;;;20.90;38.41;99502.91;5052884;28;45453;-68
2021/12/27 05:30:58;;;;;;;;;2.25;2.25;;;;;20.89;38.55;99486.25;5054502;28;46388;-68
2021/12/27 05:33:23;;;;;;;;;4.00;4.00;;;;;20.85;38.62;99471.81;5056077;28;45405;-68
2021/12/27 05:35:48;;;;;;;;;4.00;4.00;;;;;20.87;38.66;99461.81;5058080;28;45476;-68
2021/12/27 05:38:14;;;;;;;;;2.50;2.50;;;;;20.91;38.57;99468.34;5056213;28;45405;-68
2021/12/27 05:40:40;;;;;;;;;3.75;3.50;;;;;20.89;38.65;99459.81;5056030;28;45452;-68
2021/12/27 05:43:06;;;;;;;;;1.50;1.50;;;;;20.90;38.44;99447.38;5054768;28;45493;-68
2021/12/27 05:45:35;;;;;;;;;2.00;2.00;;;;;20.93;38.39;99446.97;5055924;28;45411;-68
2021/12/27 05:48:00;;;;;;;;;3.50;2.00;;;;;20.92;38.47;99437.44;5058210;28;45327;-68
2021/12/27 05:50:26;;;;;;;;;2.00;2.00;;;;;20.93;38.62;99431.09;5055382;28;46405;-68
2021/12/27 05:52:52;;;;;;;;;3.00;3.00;;;;;20.89;38.33;99420.16;5055757;28;45460;-68
2021/12/27 05:55:18;;;;;;;;;2.00;2.00;;;;;20.90;38.57;99419.13;5055866;28;45381;-68
2021/12/27 05:57:43;;;;;;;;;2.00;2.00;;;;;20.91;38.55;99414.66;5056120;28;45243;-68
2021/12/27 06:00:12;;;;;;;;;2.50;2.50;;;;;20.92;38.41;99411.00;5036393;28;46025;-68
2021/12/27 06:02:37;;;;;;;;;5.00;4.00;;;;;20.86;38.65;99396.78;5036280;28;45556;-68
2021/12/27 06:05:03;;;;;;;;;3.00;3.00;;;;;20.91;38.65;99401.44;5050199;28;45931;-68
2021/12/27 06:07:30;;;;;;;;;3.00;3.00;;;;;20.89;38.59;99382.31;5055695;28;45523;-68
2021/12/27 06:09:56;;;;;;;;;1.75;1.75;;;;;20.91;38.40;99377.63;5054005;28;46444;-68
2021/12/27 06:12:21;;;;;;;;;3.75;3.25;;;;;20.88;38.73;99378.88;5055440;28;45460;-68
2021/12/27 06:14:46;;;;;;;;;2.00;2.00;;;;;20.89;38.61;99371.75;5057879;28;45500;-68
2021/12/27 06:17:12;;;;;;;;;2.00;2.00;;;;;20.87;38.43;99371.16;5055481;28;45554;-68
2021/12/27 06:19:37;;;;;;;;;2.75;2.75;;;;;20.89;38.56;99364.63;5055013;28;45319;-68
2021/12/27 06:22:04;;;;;;;;;2.75;2.25;;;;;20.89;38.60;99362.00;5053958;28;45389;-69
2021/12/27 06:24:29;;;;;;;;;1.50;1.00;;;;;20.88;38.67;99351.59;5055531;28;45476;-68
2021/12/27 06:26:54;;;;;;;;;3.00;1.50;;;;;20.89;38.73;99362.00;5057477;28;45409;-68
2021/12/27 06:29:20;;;;;;;;;2.00;2.00;;;;;20.91;38.46;99364.41;5055221;28;48278;-68
2021/12/27 06:31:45;;;;;;;;;1.25;1.25;;;;;20.88;38.69;99359.53;5055352;28;45348;-68
2021/12/27 06:34:10;;;;;;;;;2.00;2.00;;;;;20.88;38.76;99356.91;5055054;28;45394;-68
2021/12/27 06:36:36;;;;;;;;;2.25;1.75;;;;;20.90;38.42;99353.03;5055519;28;45344;-68
2021/12/27 06:39:03;;;;;;;;;2.25;1.25;;;;;20.91;38.44;99345.91;5057433;28;45236;-68
2021/12/27 06:41:29;;;;;;;;;2.75;2.50;;;;;20.90;38.81;99345.09;5054806;28;45535;-68
2021/12/27 06:43:54;;;;;;;;;2.75;2.75;;;;;20.91;38.54;99345.91;5054936;28;45466;-68
2021/12/27 06:46:20;;;;;;;;;2.00;2.00;;;;;20.91;39.00;99330.88;5055165;28;45476;-68
2021/12/27 06:48:46;;;;;;;;;2.00;2.00;;;;;20.89;38.55;99324.97;5053178;28;46433;-68
2021/12/27 06:51:11;;;;;;;;;3.00;3.00;;;;;20.92;38.96;99321.91;5056266;28;45364;-69
2021/12/27 06:53:37;;;;;;;;;2.50;2.00;;;;;20.88;38.52;99318.06;5057033;28;45197;-69
2021/12/27 06:56:04;;;;;;;;;3.00;2.00;;;;;20.91;38.48;99311.53;5054785;28;45473;-69
2021/12/27 06:58:30;;;;;;;;;2.00;1.50;;;;;20.93;38.53;99310.31;5054684;28;46493;-69
2021/12/27 07:00:55;;;;;;;;;6.00;3.00;;;;;20.91;38.48;99303.59;5053498;28;45258;-69
2021/12/27 07:03:21;;;;;;;;;2.00;2.00;;;;;20.93;38.46;99310.31;5054538;28;45664;-69
2021/12/27 07:05:48;;;;;;;;;2.00;2.00;;;;;20.94;38.61;99314.59;5057010;28;45333;-69
2021/12/27 07:08:14;;;;;;;;;2.00;2.00;;;;;20.78;38.74;99294.72;5054457;28;45810;-69
2021/12/27 07:10:39;;;;;;;;;2.25;2.00;;;;;20.95;38.66;99310.91;5054520;28;45437;-69
2021/12/27 07:13:06;;;;;;;;;2.00;2.00;;;;;20.93;38.48;99312.97;5054823;28;45605;-69
2021/12/27 07:15:32;;;;;;;;;2.00;1.00;;;;;20.95;38.87;99315.38;5054738;28;45550;-69
2021/12/27 07:17:57;;;;;;;;;1.75;1.00;;;;;20.91;38.44;99315.00;5056173;28;46330;-69
2021/12/27 07:20:23;;;;;;;;;3.00;3.00;;;;;20.95;38.42;99323.31;5054512;28;45307;-68
2021/12/27 07:22:49;;;;;;;;;2.25;2.25;;;;;20.94;38.57;99327.81;5054415;28;45536;-68
2021/12/27 07:25:14;;;;;;;;;1.00;1.00;;;;;20.90;38.79;99320.47;5054490;28;45397;-69
2021/12/27 07:27:40;;;;;;;;;2.00;2.00;;;;;20.94;38.58;99340.22;5052802;28;46239;-69
2021/12/27 07:30:09;;;;;;;;;3.75;1.75;;;;;20.90;38.73;99328.41;5056401;28;45389;-69
2021/12/27 07:32:34;;;;;;;;;2.00;2.00;;;;;20.89;38.58;99326.81;5053236;28;45389;-68
2021/12/27 07:35:00;;;;;;;;;3.00;3.00;;;;;20.92;38.53;99340.41;5054327;28;45413;-69
2021/12/27 07:37:26;;;;;;;;;2.25;2.25;;;;;20.92;38.82;99331.69;5053974;28;46623;-69
2021/12/27 07:39:51;;;;;;;;;2.50;2.50;;;;;20.88;38.87;99328.63;5052908;28;45300;-69
2021/12/27 07:42:17;;;;;;;;;0.00;0.00;;;;;20.93;38.56;99330.66;5054879;28;45270;-69
2021/12/27 07:44:42;;;;;;;;;3.25;1.75;;;;;20.91;38.64;99328.22;5055625;28;45319;-69
2021/12/27 07:47:07;;;;;;;;;1.50;1.50;;;;;20.87;38.31;99328.84;5053581;28;46925;-69
2021/12/27 07:49:33;;;;;;;;;1.50;1.00;;;;;20.90;38.57;99337.16;5054109;28;45519;-69
2021/12/27 07:51:58;;;;;;;;;1.00;1.00;;;;;20.88;38.89;99330.47;5053453;28;45380;-69
2021/12/27 07:54:24;;;;;;;;;2.00;2.00;;;;;20.92;38.73;99336.97;5054207;28;45232;-69
2021/12/27 07:56:49;;;;;;;;;1.00;1.00;;;;;20.92;38.61;99332.47;5056100;28;45312;-69
2021/12/27 07:59:15;;;;;;;;;2.50;1.75;;;;;20.91;38.70;99332.69;5053960;28;45444;-68
2021/12/27 08:01:40;;;;;;;;;1.75;1.75;;;;;20.88;38.83;99322.53;5053497;28;45604;-69
2021/12/27 08:04:08;;;;;;;;;1.00;1.00;;;;;20.92;38.56;99327.19;5054034;28;45525;-69
2021/12/27 08:06:34;;;;;;;;;2.75;1.25;;;;;20.92;38.66;99335.13;5036781;28;46212;-69
2021/12/27 08:09:00;;;;;;;;;2.00;2.00;;;;;20.84;38.62;99330.09;5055829;28;45440;-69
2021/12/27 08:11:26;;;;;;;;;2.00;2.00;;;;;20.88;38.53;99328.63;5053639;28;45486;-69
2021/12/27 08:13:52;;;;;;;;;0.50;0.50;;;;;20.93;39.01;99343.88;5053760;28;45361;-69
2021/12/27 08:16:23;;;;;;;;;1.25;1.25;;;;;20.90;38.89;99331.88;5053145;28;46554;-69
2021/12/27 08:18:49;;;;;;;;;2.00;1.00;;;;;20.92;38.57;99340.41;5052236;28;45343;-69
2021/12/27 08:21:16;;;;;;;;;3.00;1.00;;;;;20.90;39.01;99342.44;5054570;28;45386;-69
2021/12/27 08:23:42;;;;;;;;;1.25;1.25;;;;;20.92;38.47;99344.91;5055185;28;45552;-69
2021/12/27 08:26:07;;;;;;;;;0.75;0.75;;;;;20.91;38.86;99351.19;5053285;28;45559;-69
2021/12/27 08:28:32;;;;;;;;;2.25;2.25;;;;;20.91;38.96;99345.91;5053410;28;45385;-69
2021/12/27 08:30:58;;;;;;;;;2.25;0.50;;;;;20.86;38.83;99346.53;5053468;28;45469;-68
2021/12/27 08:33:23;;;;;;;;;1.00;1.00;;;;;20.92;38.72;99353.63;5053557;28;45447;-69
2021/12/27 08:35:48;;;;;;;;;2.50;2.50;;;;;20.90;38.70;99341.63;5055405;28;46417;-68
2021/12/27 08:38:16;;;;;;;;;3.00;0.50;;;;;20.73;38.56;99316.50;5053231;28;45437;-68
2021/12/27 08:40:41;;;;;;;;;2.50;1.50;;;;;20.89;38.86;99338.19;5053536;28;45674;-69
2021/12/27 08:43:07;;;;;;;;;2.50;1.75;;;;;20.92;38.69;99344.91;5053455;28;45468;-69
2021/12/27 08:45:32;;;;;;;;;1.50;1.50;;;;;20.90;38.84;99333.69;5051534;28;45540;-69
2021/12/27 08:47:58;;;;;;;;;0.50;0.50;;;;;20.91;38.83;99340.63;5050746;28;45397;-68
2021/12/27 08:50:23;;;;;;;;;2.00;1.50;;;;;20.89;38.88;99340.03;5053400;28;45302;-69
2021/12/27 08:52:50;;;;;;;;;1.50;1.50;;;;;20.89;39.02;99346.13;5053235;28;45405;-69
2021/12/27 08:55:16;;;;;;;;;0.75;0.75;;;;;20.91;38.75;99357.31;5053093;28;46195;-69
2021/12/27 08:57:42;;;;;;;;;0.50;0.25;;;;;20.85;38.65;99352.84;5051728;28;45346;-69
2021/12/27 09:00:10;;;;;;;;;0.75;0.75;;;;;20.94;38.80;99364.00;5054457;28;45405;-69
2021/12/27 09:02:36;;;;;;;;;1.25;1.25;;;;;20.93;38.80;99365.00;5052601;28;46957;-69
2021/12/27 09:05:03;;;;;;;;;0.50;0.50;;;;;20.90;38.73;99354.84;5056330;28;45354;-69
2021/12/27 09:07:28;;;;;;;;;1.50;1.50;;;;;20.93;38.89;99349.97;5056550;28;45412;-69
2021/12/27 09:09:54;;;;;;;;;3.50;1.50;;;;;20.91;38.89;99343.25;5056459;28;45433;-69
2021/12/27 09:12:19;;;;;;;;;1.50;1.50;;;;;20.95;38.76;99347.09;5056930;28;45297;-69
2021/12/27 09:14:45;;;;;;;;;1.75;1.75;;;;;20.93;38.64;99349.97;5036754;28;47379;-69
2021/12/27 09:17:11;;;;;;;;;0.75;0.75;;;;;20.92;38.61;99339.63;5053844;28;45436;-69
2021/12/27 09:19:36;;;;;;;;;2.00;2.00;;;;;20.95;39.00;99342.63;5056578;28;45374;-69
2021/12/27 09:22:02;;;;;;;;;1.50;1.50;;;;;20.92;38.57;99340.41;5056255;28;45334;-69
2021/12/27 09:24:28;;;;;;;;;1.75;1.00;;;;;20.90;38.81;99337.16;5055927;28;45562;-68
2021/12/27 09:26:54;;;;;;;;;1.50;1.50;;;;;20.96;38.91;99343.44;5057603;28;45386;-69
2021/12/27 09:29:20;;;;;;;;;1.00;1.00;;;;;20.90;38.62;99331.06;5056009;28;45498;-69
2021/12/27 09:31:45;;;;;;;;;1.00;1.00;;;;;20.90;38.40;99326.59;5056433;28;45251;-69
2021/12/27 09:34:10;;;;;;;;;3.00;1.50;;;;;20.92;38.80;99329.81;5056179;28;46273;-69
2021/12/27 09:36:36;;;;;;;;;2.00;2.00;;;;;20.95;38.56;99336.53;5055088;28;45300;-69
2021/12/27 09:39:02;;;;;;;;;2.50;1.25;;;;;20.96;38.83;99338.97;5054375;28;45402;-69
2021/12/27 09:41:27;;;;;;;;;2.00;1.00;;;;;20.95;38.99;99339.16;5056183;28;45505;-68
2021/12/27 09:43:54;;;;;;;;;2.00;1.25;;;;;20.93;38.63;99330.66;5055316;28;45463;-69
2021/12/27 09:46:20;;;;;;;;;3.00;1.75;;;;;20.90;38.63;99331.06;5055933;28;45478;-69
2021/12/27 09:48:46;;;;;;;;;1.25;1.25;;;;;20.94;38.72;99338.38;5056130;28;45456;-69
2021/12/27 09:51:12;;;;;;;;;1.00;0.50;;;;;20.95;38.71;99331.25;5057391;28;45524;-69
2021/12/27 09:53:39;;;;;;;;;2.50;0.50;;;;;20.89;39.10;99319.69;5057760;28;45393;-69
2021/12/27 09:56:10;;;;;;;;;0.50;0.50;;;;;20.93;38.88;99334.09;5055919;28;45324;-69
2021/12/27 09:58:35;;;;;;;;;0.75;0.75;;;;;20.93;38.62;99330.66;5055459;28;46736;-69
2021/12/27 10:01:03;;;;;;;;;1.50;1.50;;;;;20.93;38.71;99328.00;5039298;28;45680;-69
2021/12/27 10:03:30;;;;;;;;;1.00;1.00;;;;;20.90;38.78;99331.06;5055246;28;46360;-69
2021/12/27 10:06:08;;;;;;;;;2.75;2.00;;;;;20.86;39.06;99320.09;5056952;28;45266;-69
2021/12/27 10:08:33;;;;;;;;;2.00;2.00;;;;;20.94;38.68;99332.28;5056035;28;45275;-69
2021/12/27 10:10:59;;;;;;;;;1.50;1.50;;;;;20.92;38.95;99327.19;5055226;28;45307;-69
2021/12/27 10:13:24;;;;;;;;;1.00;1.00;;;;;20.93;38.79;99342.03;5055385;28;45991;-69
2021/12/27 10:15:49;;;;;;;;;3.75;1.50;;;;;20.92;39.02;99339.63;5053601;28;45344;-69
2021/12/27 10:18:17;;;;;;;;;1.75;1.75;;;;;20.92;38.79;99336.97;5056599;28;45365;-69
2021/12/27 10:20:44;;;;;;;;;1.00;1.00;;;;;20.94;38.97;99340.22;5057361;28;45240;-68
2021/12/27 10:23:10;;;;;;;;;2.00;2.00;;;;;20.91;39.16;99335.34;5055191;28;45428;-68
2021/12/27 10:25:36;;;;;;;;;2.00;1.00;;;;;20.90;38.83;99336.34;5055060;28;45242;-68
2021/12/27 10:28:03;;;;;;;;;1.75;1.75;;;;;20.91;38.83;99341.44;5055519;28;45395;-69
2021/12/27 10:30:31;;;;;;;;;2.00;1.00;;;;;20.92;38.79;99340.41;5055578;28;45630;-68
2021/12/27 10:33:23;;;;;;;;;1.25;1.25;;;;;20.94;38.80;99350.78;5057259;28;48303;-69
2021/12/27 10:35:58;;;;;;;;;1.50;1.50;;;;;20.87;38.88;99331.50;5045849;28;45389;-69
2021/12/27 10:38:31;;;;;;;;;2.00;2.00;;;;;20.91;38.77;99336.16;5055315;28;45756;-68
2021/12/27 10:41:00;;;;;;;;;2.00;2.00;;;;;20.93;39.05;99336.75;5054639;28;45358;-69
2021/12/27 10:43:38;;;;;;;;;2.00;2.00;;;;;20.93;38.81;99325.34;5053524;28;45513;-69
2021/12/27 10:46:06;;;;;;;;;1.75;1.00;;;;;20.93;38.88;99322.72;5054916;28;45565;-69
2021/12/27 10:48:37;;;;;;;;;1.00;1.00;;;;;20.92;38.92;99331.69;5055370;28;45393;-69
2021/12/27 10:51:04;;;;;;;;;1.50;0.50;;;;;20.92;39.01;99337.75;5057250;28;45515;-69
2021/12/27 10:53:43;;;;;;;;;0.50;0.50;;;;;20.88;38.92;99311.97;5054678;28;47701;-69
2021/12/27 10:56:09;;;;;;;;;1.00;1.00;;;;;20.93;38.87;99335.94;5052893;28;45360;-69
2021/12/27 10:58:38;;;;;;;;;0.75;0.75;;;;;20.92;38.92;99334.31;5054685;28;45338;-68
2021/12/27 11:01:08;;;;;;;;;3.00;1.00;;;;;20.90;38.86;99331.06;5054934;28;45388;-69
2021/12/27 11:03:39;;;;;;;;;1.00;1.00;;;;;20.91;38.85;99332.69;5054693;28;48593;-69
2021/12/27 11:06:06;;;;;;;;;2.00;0.50;;;;;20.92;38.63;99324.53;5056835;28;45420;-69
2021/12/27 11:08:35;;;;;;;;;1.50;1.50;;;;;20.93;38.69;99328.00;5055508;28;45612;-69
2021/12/27 11:11:01;;;;;;;;;0.75;0.75;;;;;20.94;38.85;99333.09;5054225;28;45706;-68
2021/12/27 11:13:28;;;;;;;;;1.75;1.75;;;;;20.76;38.97;99301.25;5054442;28;45385;-69
2021/12/27 11:15:55;;;;;;;;;1.00;0.50;;;;;20.92;38.84;99319.25;5054568;28;45448;-69
2021/12/27 11:18:21;;;;;;;;;1.00;1.00;;;;;20.88;38.91;99317.25;5054725;28;45905;-69
2021/12/27 11:20:52;;;;;;;;;0.75;0.75;;;;;20.95;38.87;99328.59;5056706;28;45224;-69
2021/12/27 11:23:20;;;;;;;;;1.25;1.25;;;;;20.95;38.90;99329.41;5052375;28;46012;-69
2021/12/27 11:25:46;;;;;;;;;0.50;0.50;;;;;20.95;39.04;99326.78;5054176;28;45388;-68
2021/12/27 11:28:25;;;;;;;;;0.75;0.75;;;;;20.96;39.07;99333.69;5053337;28;45469;-69
2021/12/27 11:30:50;;;;;;;;;1.25;1.25;;;;;20.96;38.80;99338.16;5054469;28;45554;-69
2021/12/27 11:33:20;;;;;;;;;0.75;0.75;;;;;20.96;38.71;99336.34;5054760;28;46950;-69